Galt, IA (50101)

1:10 AM CDT on September 20, 2014 (GMT -0500)
Clarion Municipal | Change Station
CLOSE
Current Station
Airport
Location: Clarion,
Elevation: 1161 ft
Nearby Weather Stations

Elev 1161 ft 42.74 °N, 93.76 °W | Updated 15 minutes ago

Overcast
Overcast
64 °F
Feels Like 64 °F
N
10
Wind Variable Wind from West
Gusts 28 mph

Today
High -- | Low -- °F
--% Chance of Precip.
Yesterday
High -- | Low -- °F
Precip. -- in
6:59 AM 7:15 PM
Waning Crescent, 14% visible
Pressure 29.87 in
Visibility 10.0 miles
Clouds
Dew Point 64 °F
Humidity 100%
Rainfall 0.37 in
Snow Depth Not available.
UV Not available.
Pollen 5.30 out of 12
Air Quality Not available.
Flu Activity Not available.
METAR KCAV 200555Z AUTO 28009G24KT 10SM +RA 18/18 A2987 RMK AO2 P0037

More Conditions Fewer Conditions

Pressure 29.87 in
Visibility 10.0 miles
Clouds
Dew Point 64 °F
Humidity 100%
Rainfall 0.37 in
Snow Depth Not available.
UV Not available.
Pollen 5.30 out of 12
Air Quality Not available.
Flu Activity Not available.
METAR KCAV 200555Z AUTO 28009G24KT 10SM +RA 18/18 A2987 RMK AO2 P0037

More Conditions Fewer Conditions

10-Day Weather Forecast

Almanac

Astronomy

Sep. 20, 2014 Rise Set
Actual Time 6:59 AM CDT 7:15 PM CDT
Civil Twilight 6:31 AM CDT 7:43 PM CDT
Nautical Twilight 5:58 AM CDT 8:16 PM CDT
Astronomical Twilight 5:24 AM CDT 8:50 PM CDT
Moon 3:35 AM CDT 5:22 PM CDT
Length of Visible Light 13h 12m
Length of Day
12h 15m
Tomorrow will be 2m 53s shorter.
Waning Crescent, 14% of the Moon is Illuminated
Today
Waning Crescent
Sep 24
New
Oct 1
First Quarter
Oct 8
Full
Oct 15
Last Quarter

Today's Extremes

State Highs State Lows

Community

WunderPhotos

Upload Photos

1,754,777 photos uploaded!

WunderBlogs® & News

Nearby

Snow Depth

Station Depth Elevation
No new snow has been reported.

Earthquake Activity

City Distance Mag. Time & Date
No recent earthquake activity has been reported nearby.
Minimum magnitude displayed is 2.5.

Coastal Water Temperatures

Place Temperature
No Stations Reporting

Nearby Weather Stations